createdAt,value
2023-01-06T00:04:49.556Z,-11.37
2023-01-06T00:07:31.345Z,-11.10
2023-01-06T00:10:13.933Z,-10.93
2023-01-06T00:12:58.928Z,-11.27
2023-01-06T00:16:05.575Z,-11.05
2023-01-06T00:19:24.771Z,-10.89
2023-01-06T00:22:14.256Z,-10.56
2023-01-06T00:25:27.981Z,-10.25
2023-01-06T00:28:10.182Z,-10.12
2023-01-06T00:30:51.625Z,-9.89
2023-01-06T00:33:28.952Z,-9.66
2023-01-06T00:36:28.355Z,-9.53
2023-01-06T00:39:07.502Z,-9.44
2023-01-06T00:41:58.592Z,-9.22
2023-01-06T00:44:43.617Z,-9.04
2023-01-06T00:50:43.961Z,-8.61
2023-01-06T00:53:49.980Z,-8.39
2023-01-06T00:56:32.456Z,-8.19
2023-01-06T01:05:28.808Z,-7.64
2023-01-06T01:08:05.993Z,-7.39
2023-01-06T01:10:53.268Z,-7.25
2023-01-06T01:13:39.112Z,-7.19
2023-01-06T01:16:26.113Z,-7.01
2023-01-06T01:19:03.690Z,-6.95
2023-01-06T01:21:50.082Z,-6.72
2023-01-06T01:24:43.829Z,-6.57
2023-01-06T01:27:23.400Z,-7.05
2023-01-06T01:30:17.103Z,-6.21
2023-01-06T01:32:58.334Z,-5.87
2023-01-06T01:38:35.539Z,-5.44
2023-01-06T01:41:39.890Z,-5.25
2023-01-06T01:44:51.198Z,-4.99
2023-01-06T01:47:45.000Z,-4.73
2023-01-06T01:50:33.364Z,-4.91
2023-01-06T01:53:33.825Z,-4.38
2023-01-06T01:56:22.812Z,-4.30
2023-01-06T01:59:11.552Z,-4.25
2023-01-06T02:02:11.089Z,-4.11
2023-01-06T02:05:06.997Z,-3.91
2023-01-06T02:08:18.025Z,-3.99
2023-01-06T02:11:22.152Z,-4.14
2023-01-06T02:14:31.434Z,-4.08
2023-01-06T02:17:31.604Z,-3.88
2023-01-06T02:20:37.727Z,-3.53
2023-01-06T02:23:40.789Z,-3.22
2023-01-06T02:30:17.212Z,-3.19
2023-01-06T02:33:31.078Z,-3.23
2023-01-06T02:36:25.880Z,-3.09
2023-01-06T02:39:35.062Z,-2.79
2023-01-06T02:42:40.447Z,-2.54
2023-01-06T02:45:36.772Z,-2.46
2023-01-06T02:48:49.058Z,-2.36
2023-01-06T02:52:07.499Z,-2.26
2023-01-06T02:54:58.068Z,-2.32
2023-01-06T03:01:06.991Z,-2.18
2023-01-06T03:04:07.663Z,-2.13
2023-01-06T03:10:14.927Z,-2.15
2023-01-06T03:12:55.530Z,-2.24
2023-01-06T03:15:38.798Z,-2.37
2023-01-06T03:18:18.971Z,-2.40
2023-01-06T03:21:09.702Z,-2.60
2023-01-06T03:24:19.837Z,-2.61
2023-01-06T03:26:55.318Z,-2.74
2023-01-06T03:29:42.963Z,-2.91
2023-01-06T03:32:28.154Z,-3.01
2023-01-06T03:38:57.155Z,-3.08
2023-01-06T03:41:53.333Z,-3.01
2023-01-06T03:44:45.174Z,-3.04
2023-01-06T03:47:59.425Z,-2.84
2023-01-06T03:50:38.087Z,-2.83
2023-01-06T03:53:32.223Z,-2.79
2023-01-06T03:56:36.322Z,-2.65
2023-01-06T03:59:18.853Z,-2.55
2023-01-06T04:02:03.898Z,-2.55
2023-01-06T04:05:09.529Z,-2.56
2023-01-06T04:07:50.259Z,-2.65
2023-01-06T04:10:42.068Z,-2.64
2023-01-06T04:13:54.329Z,-2.75
2023-01-06T04:16:50.047Z,-2.76
2023-01-06T04:19:28.105Z,-2.77
2023-01-06T04:22:15.013Z,-2.78
2023-01-06T04:25:18.075Z,-2.84
2023-01-06T04:27:54.651Z,-2.96
2023-01-06T04:30:42.576Z,-2.90
2023-01-06T04:33:53.099Z,-2.90
2023-01-06T04:36:31.981Z,-2.91
2023-01-06T04:39:17.798Z,-2.93
2023-01-06T04:42:11.394Z,-3.12
2023-01-06T04:44:57.940Z,-3.11
2023-01-06T04:53:46.850Z,-3.05
2023-01-06T04:56:21.764Z,-3.24
2023-01-06T05:02:27.542Z,-3.53
2023-01-06T05:05:38.490Z,-3.78
2023-01-06T05:08:33.365Z,-3.97
2023-01-06T05:11:27.878Z,-4.16
2023-01-06T05:14:06.780Z,-4.32
2023-01-06T05:16:52.306Z,-4.26
2023-01-06T05:19:55.225Z,-4.38
2023-01-06T05:23:05.968Z,-4.45
2023-01-06T05:25:44.784Z,-4.59
2023-01-06T05:28:31.143Z,-4.65
2023-01-06T05:31:10.078Z,-4.69
2023-01-06T05:34:05.314Z,-4.73
2023-01-06T05:37:02.853Z,-4.81
2023-01-06T05:39:54.471Z,-4.92
2023-01-06T05:42:57.294Z,-5.05
2023-01-06T05:48:21.778Z,-5.13
2023-01-06T05:51:01.964Z,-5.24
2023-01-06T05:53:45.107Z,-5.28
2023-01-06T05:56:24.330Z,-5.32
2023-01-06T05:59:42.161Z,-5.28
2023-01-06T06:02:22.151Z,-5.34
2023-01-06T06:08:28.745Z,-5.50
2023-01-06T06:11:27.331Z,-5.48
2023-01-06T06:14:36.058Z,-5.58
2023-01-06T06:20:18.033Z,-5.71
2023-01-06T06:22:55.328Z,-5.63
2023-01-06T06:25:41.713Z,-5.68
2023-01-06T06:28:20.802Z,-5.74
2023-01-06T06:31:16.155Z,-5.77
2023-01-06T06:34:08.473Z,-5.83
2023-01-06T06:36:53.348Z,-5.86
2023-01-06T06:39:39.224Z,-5.83
2023-01-06T06:42:20.349Z,-5.84
2023-01-06T06:44:55.878Z,-5.90
2023-01-06T06:47:34.491Z,-5.98
2023-01-06T06:50:18.902Z,-6.00
2023-01-06T06:53:01.292Z,-5.99
2023-01-06T06:55:44.800Z,-6.03
2023-01-06T07:01:49.996Z,-6.20
2023-01-06T07:12:11.770Z,-6.48
2023-01-06T07:15:42.550Z,-6.58
2023-01-06T07:18:24.892Z,-6.76
2023-01-06T07:21:39.968Z,-6.81
2023-01-06T07:27:38.190Z,-6.83
2023-01-06T07:30:25.358Z,-6.84
2023-01-06T07:36:06.740Z,-7.03
2023-01-06T07:39:03.792Z,-6.97
2023-01-06T07:42:03.445Z,-7.04
2023-01-06T07:45:18.482Z,-7.08
2023-01-06T07:48:05.921Z,-7.13
2023-01-06T07:50:40.328Z,-7.38
2023-01-06T07:56:45.141Z,-7.66
2023-01-06T07:59:30.562Z,-7.76
2023-01-06T08:02:11.405Z,-7.88
2023-01-06T08:05:01.405Z,-8.02
2023-01-06T08:10:41.544Z,-8.46
2023-01-06T08:13:40.797Z,-8.51
2023-01-06T08:17:14.996Z,-8.68
2023-01-06T08:20:03.452Z,-8.95
2023-01-06T08:26:46.503Z,-9.58
2023-01-06T08:33:20.288Z,-10.21
2023-01-06T08:36:25.203Z,-10.43
2023-01-06T08:39:01.233Z,-10.65
2023-01-06T08:41:42.168Z,-10.72
2023-01-06T08:51:15.506Z,-10.78
2023-01-06T08:54:23.216Z,-10.98
2023-01-06T08:57:19.262Z,-10.84
2023-01-06T09:09:08.247Z,-10.86
2023-01-06T09:11:55.884Z,-10.70
2023-01-06T09:14:34.524Z,-10.64
2023-01-06T09:17:22.957Z,-10.62
2023-01-06T09:20:14.332Z,-10.63
2023-01-06T09:23:08.547Z,-10.65
2023-01-06T09:25:56.311Z,-10.66
2023-01-06T09:28:53.399Z,-10.78
2023-01-06T09:35:11.909Z,-11.27
2023-01-06T09:38:06.981Z,-11.16
2023-01-06T09:44:44.053Z,-11.17
2023-01-06T09:51:14.643Z,-11.06
2023-01-06T10:01:10.575Z,-11.13
2023-01-06T10:04:11.869Z,-11.26
2023-01-06T10:07:14.876Z,-11.37
2023-01-06T10:10:14.059Z,-11.52
2023-01-06T10:19:38.809Z,-11.50
2023-01-06T10:22:21.765Z,-11.60
2023-01-06T10:31:35.559Z,-11.74
2023-01-06T10:34:34.480Z,-11.55
2023-01-06T10:41:22.958Z,-11.69
2023-01-06T10:44:17.395Z,-12.00
2023-01-06T10:53:39.590Z,-11.45
2023-01-06T11:10:02.368Z,-11.82
2023-01-06T11:13:33.690Z,-12.09
2023-01-06T11:23:14.330Z,-12.40
2023-01-06T11:26:25.188Z,-13.14
2023-01-06T11:29:40.366Z,-12.61
2023-01-06T11:32:31.757Z,-13.39
2023-01-06T11:38:32.571Z,-13.14
2023-01-06T11:44:11.092Z,-12.81
2023-01-06T11:46:58.277Z,-12.73
2023-01-06T11:52:54.496Z,-12.67
2023-01-06T11:55:50.559Z,-12.62
2023-01-06T11:59:00.836Z,-12.67
2023-01-06T12:02:01.997Z,-12.39
2023-01-06T12:07:55.125Z,-12.12
2023-01-06T12:13:45.669Z,-12.06
2023-01-06T12:17:03.116Z,-12.13
2023-01-06T12:19:56.245Z,-12.32
2023-01-06T12:25:47.431Z,-12.42
2023-01-06T12:28:51.471Z,-12.50
2023-01-06T12:31:34.206Z,-12.65
2023-01-06T12:34:39.614Z,-12.80
2023-01-06T12:37:52.319Z,-12.90
2023-01-06T12:40:45.397Z,-12.98
2023-01-06T12:49:55.212Z,-13.04
2023-01-06T12:52:50.807Z,-13.04
2023-01-06T12:56:00.918Z,-12.94
2023-01-06T12:58:51.238Z,-12.70
2023-01-06T13:05:26.926Z,-13.00
2023-01-06T13:08:50.240Z,-13.09
2023-01-06T13:11:58.225Z,-13.25
2023-01-06T13:15:00.287Z,-13.31
2023-01-06T13:18:05.477Z,-13.43
2023-01-06T13:20:54.670Z,-13.94
2023-01-06T13:24:18.207Z,-13.58
2023-01-06T13:27:41.607Z,-13.73
2023-01-06T13:31:29.899Z,-13.70
2023-01-06T13:34:42.217Z,-13.60
2023-01-06T13:41:45.098Z,-13.86
2023-01-06T13:47:44.273Z,-14.16
2023-01-06T13:50:31.197Z,-14.03
2023-01-06T13:53:22.604Z,-13.89
2023-01-06T13:56:53.434Z,-13.70
2023-01-06T14:00:03.977Z,-13.65
2023-01-06T14:03:41.395Z,-13.68
2023-01-06T14:06:36.370Z,-13.78
2023-01-06T14:09:20.636Z,-13.70
2023-01-06T14:12:05.277Z,-13.78
2023-01-06T14:15:00.268Z,-13.76
2023-01-06T14:17:49.247Z,-13.71
2023-01-06T14:20:36.181Z,-13.61
2023-01-06T14:23:35.863Z,-13.54
2023-01-06T14:26:27.831Z,-13.58
2023-01-06T14:33:27.535Z,-13.45
2023-01-06T14:36:31.083Z,-13.47
2023-01-06T14:39:53.987Z,-13.57
2023-01-06T14:45:56.943Z,-14.45
2023-01-06T14:49:08.756Z,-13.71
2023-01-06T14:52:10.992Z,-13.80
2023-01-06T14:55:06.424Z,-14.01
2023-01-06T14:58:19.763Z,-14.06
2023-01-06T15:04:25.937Z,-14.01
2023-01-06T15:07:54.167Z,-14.08
2023-01-06T15:10:48.848Z,-13.95
2023-01-06T15:13:33.056Z,-13.99
2023-01-06T15:16:18.797Z,-14.10
2023-01-06T15:19:34.492Z,-14.29
2023-01-06T15:22:37.816Z,-14.05
2023-01-06T15:25:46.679Z,-14.04
2023-01-06T15:28:43.916Z,-14.21
2023-01-06T15:31:36.253Z,-14.29
2023-01-06T15:34:31.596Z,-14.20
2023-01-06T15:37:34.694Z,-14.06
2023-01-06T15:40:28.829Z,-14.24
2023-01-06T15:43:22.981Z,-14.35
2023-01-06T15:46:17.997Z,-14.39
2023-01-06T15:49:06.451Z,-14.47
2023-01-06T15:52:24.116Z,-14.46
2023-01-06T15:55:09.433Z,-14.64
2023-01-06T15:57:56.659Z,-14.80
2023-01-06T16:00:43.248Z,-15.09
2023-01-06T16:03:45.438Z,-15.10
2023-01-06T16:06:39.895Z,-15.05
2023-01-06T16:09:44.620Z,-15.00
2023-01-06T16:12:48.960Z,-14.89
2023-01-06T16:15:56.157Z,-14.85
2023-01-06T16:22:10.647Z,-15.02
2023-01-06T16:25:30.844Z,-14.97
2023-01-06T16:28:17.362Z,-15.02
2023-01-06T16:31:22.031Z,-15.13
2023-01-06T16:34:12.812Z,-14.99
2023-01-06T16:39:41.057Z,-14.92
2023-01-06T16:42:59.383Z,-14.89
2023-01-06T16:49:06.860Z,-14.80
2023-01-06T16:51:58.329Z,-14.72
2023-01-06T16:58:15.054Z,-14.58
2023-01-06T17:01:27.261Z,-15.09
2023-01-06T17:04:31.903Z,-15.30
2023-01-06T17:07:17.181Z,-15.47
2023-01-06T17:10:07.167Z,-15.80
2023-01-06T17:13:18.098Z,-16.14
2023-01-06T17:16:15.845Z,-16.35
2023-01-06T17:19:18.539Z,-16.21
2023-01-06T17:22:41.243Z,-16.26
2023-01-06T17:25:23.775Z,-16.36
2023-01-06T17:28:11.639Z,-16.44
2023-01-06T17:30:53.926Z,-16.52
2023-01-06T17:33:45.016Z,-16.46
2023-01-06T17:36:48.482Z,-16.35
2023-01-06T17:39:37.602Z,-16.87
2023-01-06T17:43:05.769Z,-15.96
2023-01-06T17:45:47.747Z,-15.69
2023-01-06T17:48:34.919Z,-15.51
2023-01-06T17:54:48.787Z,-15.27
2023-01-06T17:57:36.284Z,-15.10
2023-01-06T18:00:36.046Z,-15.18
2023-01-06T18:03:22.141Z,-15.28
2023-01-06T18:06:44.922Z,-15.31
2023-01-06T18:09:33.188Z,-15.31
2023-01-06T18:12:26.326Z,-15.24
2023-01-06T18:15:13.016Z,-15.11
2023-01-06T18:17:53.051Z,-15.10
2023-01-06T18:20:45.658Z,-15.01
2023-01-06T18:23:48.529Z,-15.03
2023-01-06T18:26:50.500Z,-15.06
2023-01-06T18:30:11.589Z,-15.06
2023-01-06T18:32:57.506Z,-15.17
2023-01-06T18:35:36.763Z,-15.12
2023-01-06T18:38:29.168Z,-15.06
2023-01-06T18:44:36.391Z,-15.01
2023-01-06T18:47:32.569Z,-15.11
2023-01-06T18:53:58.238Z,-15.07
2023-01-06T18:56:42.683Z,-15.05
2023-01-06T18:59:48.600Z,-15.06
2023-01-06T19:03:02.851Z,-15.04
2023-01-06T19:05:51.119Z,-14.97
2023-01-06T19:08:49.456Z,-14.94
2023-01-06T19:11:34.772Z,-14.87
2023-01-06T19:17:29.448Z,-14.85
2023-01-06T19:20:18.999Z,-14.88
2023-01-06T19:23:11.060Z,-15.15
2023-01-06T19:26:04.748Z,-15.24
2023-01-06T19:29:24.475Z,-15.20
2023-01-06T19:32:17.801Z,-15.11
2023-01-06T19:35:13.305Z,-15.08
2023-01-06T19:38:25.291Z,-15.04
2023-01-06T19:41:13.441Z,-14.72
2023-01-06T19:43:49.748Z,-14.48
2023-01-06T19:46:43.417Z,-14.34
2023-01-06T19:49:45.996Z,-14.16
2023-01-06T19:52:49.752Z,-14.05
2023-01-06T19:55:40.093Z,-14.46
2023-01-06T20:01:39.509Z,-15.05
2023-01-06T20:04:45.463Z,-15.21
2023-01-06T20:07:41.307Z,-14.70
2023-01-06T20:10:38.927Z,-14.70
2023-01-06T20:13:16.506Z,-14.60
2023-01-06T20:16:07.834Z,-14.53
2023-01-06T20:18:54.495Z,-14.44
2023-01-06T20:22:01.675Z,-14.32
2023-01-06T20:24:43.873Z,-14.24
2023-01-06T20:27:22.957Z,-14.26
2023-01-06T20:30:17.994Z,-14.36
2023-01-06T20:33:02.255Z,-14.42
2023-01-06T20:35:57.098Z,-14.57
2023-01-06T20:38:52.817Z,-14.72
2023-01-06T20:41:38.984Z,-14.91
2023-01-06T20:44:40.982Z,-14.92
2023-01-06T20:47:31.793Z,-14.92
2023-01-06T20:50:07.284Z,-14.94
2023-01-06T20:53:01.041Z,-14.94
2023-01-06T20:56:07.310Z,-14.97
2023-01-06T20:58:50.929Z,-15.23
2023-01-06T21:01:56.957Z,-15.40
2023-01-06T21:04:34.396Z,-15.54
2023-01-06T21:07:18.219Z,-15.75
2023-01-06T21:10:04.839Z,-15.87
2023-01-06T21:12:43.963Z,-15.94
2023-01-06T21:19:06.667Z,-16.05
2023-01-06T21:24:56.097Z,-15.93
2023-01-06T21:27:42.558Z,-15.82
2023-01-06T21:30:28.428Z,-15.76
2023-01-06T21:33:37.818Z,-15.70
2023-01-06T21:36:10.086Z,-15.74
2023-01-06T21:38:56.701Z,-15.65
2023-01-06T21:41:49.751Z,-15.63
2023-01-06T21:44:28.709Z,-15.55
2023-01-06T21:47:14.422Z,-15.61
2023-01-06T21:49:52.615Z,-15.72
2023-01-06T21:53:32.667Z,-15.74
2023-01-06T21:59:26.472Z,-15.78
2023-01-06T22:02:12.284Z,-15.76
2023-01-06T22:05:17.479Z,-15.66
2023-01-06T22:08:06.237Z,-15.50
2023-01-06T22:11:06.706Z,-15.43
2023-01-06T22:13:55.434Z,-15.38
2023-01-06T22:16:43.475Z,-15.96
2023-01-06T22:22:43.262Z,-15.21
2023-01-06T22:25:23.126Z,-15.13
2023-01-06T22:28:00.708Z,-15.12
2023-01-06T22:30:53.888Z,-15.07
2023-01-06T22:33:40.787Z,-15.01
2023-01-06T22:36:24.857Z,-14.87
2023-01-06T22:39:15.687Z,-14.75
2023-01-06T22:41:59.954Z,-14.81
2023-01-06T22:44:39.650Z,-14.56
2023-01-06T22:47:51.540Z,-14.49
2023-01-06T22:50:54.582Z,-14.53
2023-01-06T22:53:30.191Z,-14.35
2023-01-06T22:56:18.048Z,-14.21
2023-01-06T22:58:56.044Z,-14.03
2023-01-06T23:01:57.468Z,-13.87
2023-01-06T23:04:52.106Z,-13.75
2023-01-06T23:08:06.974Z,-13.58
2023-01-06T23:11:33.399Z,-13.32
2023-01-06T23:14:19.526Z,-13.05
2023-01-06T23:17:49.132Z,-12.85
2023-01-06T23:20:26.727Z,-12.44
2023-01-06T23:23:10.662Z,-12.42
2023-01-06T23:25:51.191Z,-12.25
2023-01-06T23:28:45.916Z,-12.20
2023-01-06T23:31:39.649Z,-12.12
2023-01-06T23:34:32.719Z,-12.14
2023-01-06T23:37:29.406Z,-12.16
2023-01-06T23:40:12.111Z,-12.04
2023-01-06T23:42:50.397Z,-11.90
2023-01-06T23:45:32.135Z,-11.86
2023-01-06T23:48:28.098Z,-11.83
2023-01-06T23:51:20.482Z,-11.77
2023-01-06T23:54:26.456Z,-11.78
2023-01-06T23:57:16.755Z,-11.72
